createdAt,value
2018-10-06T00:00:36.465Z,3.70
2018-10-06T00:04:39.832Z,4.40
2018-10-06T00:08:43.192Z,3.97
2018-10-06T00:12:46.575Z,4.27
2018-10-06T00:16:49.957Z,3.80
2018-10-06T00:20:53.287Z,3.90
2018-10-06T00:24:56.675Z,4.50
2018-10-06T00:29:00.034Z,3.77
2018-10-06T00:33:03.393Z,4.30
2018-10-06T00:37:06.841Z,4.00
2018-10-06T00:41:10.197Z,3.70
2018-10-06T00:45:13.557Z,4.03
2018-10-06T00:49:16.980Z,4.73
2018-10-06T00:53:20.334Z,4.27
2018-10-06T00:57:23.704Z,4.30
2018-10-06T01:01:27.037Z,4.47
2018-10-06T01:05:30.423Z,4.20
2018-10-06T01:09:33.808Z,4.20
2018-10-06T01:13:37.192Z,3.90
2018-10-06T01:17:40.564Z,4.40
2018-10-06T01:21:43.933Z,4.43
2018-10-06T01:25:47.315Z,4.70
2018-10-06T01:29:50.697Z,4.87
2018-10-06T01:33:54.058Z,4.77
2018-10-06T01:37:57.444Z,5.33
2018-10-06T01:42:01.212Z,5.20
2018-10-06T01:46:04.629Z,5.17
2018-10-06T01:50:08.766Z,5.23
2018-10-06T01:54:12.124Z,6.30
2018-10-06T01:58:15.483Z,6.23
2018-10-06T02:02:18.837Z,5.73
2018-10-06T02:06:22.221Z,6.50
2018-10-06T02:10:25.608Z,6.67
2018-10-06T02:14:28.998Z,6.40
2018-10-06T02:18:32.415Z,6.40
2018-10-06T02:22:36.932Z,6.30
2018-10-06T02:26:40.294Z,6.30
2018-10-06T02:30:45.771Z,5.90
2018-10-06T02:34:49.168Z,7.03
2018-10-06T02:38:52.569Z,5.67
2018-10-06T02:42:55.915Z,6.90
2018-10-06T02:46:59.278Z,6.80
2018-10-06T02:51:03.707Z,6.90
2018-10-06T02:55:07.190Z,6.80
2018-10-06T02:59:10.564Z,7.60
2018-10-06T03:03:13.976Z,7.07
2018-10-06T03:07:17.328Z,7.20
2018-10-06T03:11:20.712Z,7.30
2018-10-06T03:15:24.101Z,6.87
2018-10-06T03:19:27.483Z,7.47
2018-10-06T03:23:30.823Z,7.10
2018-10-06T03:27:34.193Z,7.07
2018-10-06T03:31:37.612Z,7.37
2018-10-06T03:35:40.977Z,8.07
2018-10-06T03:39:44.454Z,8.23
2018-10-06T03:43:47.785Z,8.33
2018-10-06T03:47:51.236Z,8.40
2018-10-06T03:51:54.597Z,7.77
2018-10-06T03:55:58.121Z,8.07
2018-10-06T04:00:01.472Z,8.50
2018-10-06T04:04:04.816Z,8.23
2018-10-06T04:08:08.176Z,8.27
2018-10-06T04:12:11.557Z,8.13
2018-10-06T04:16:14.924Z,8.50
2018-10-06T04:20:18.336Z,7.97
2018-10-06T04:24:21.676Z,8.97
2018-10-06T04:28:25.090Z,8.57
2018-10-06T04:32:28.447Z,8.77
2018-10-06T04:36:32.488Z,8.13
2018-10-06T04:40:36.475Z,8.60
2018-10-06T04:44:41.011Z,9.00
2018-10-06T04:48:44.408Z,9.37
2018-10-06T04:52:47.775Z,9.70
2018-10-06T04:56:51.162Z,9.60
2018-10-06T05:00:54.948Z,10.10
2018-10-06T05:04:58.340Z,10.07
2018-10-06T05:09:01.716Z,10.60
2018-10-06T05:13:05.071Z,10.77
2018-10-06T05:17:08.477Z,10.13
2018-10-06T05:21:11.827Z,10.43
2018-10-06T05:25:15.196Z,11.10
2018-10-06T05:29:18.582Z,11.70
2018-10-06T05:33:21.969Z,10.57
2018-10-06T05:37:25.384Z,9.83
2018-10-06T05:41:28.741Z,11.20
2018-10-06T05:45:32.116Z,10.97
2018-10-06T05:49:35.572Z,11.97
2018-10-06T05:53:38.935Z,11.40
2018-10-06T05:57:42.361Z,11.63
2018-10-06T06:01:45.755Z,12.70
2018-10-06T06:05:49.145Z,12.50
2018-10-06T06:09:54.115Z,12.10
2018-10-06T06:13:57.532Z,12.17
2018-10-06T06:18:00.911Z,12.50
2018-10-06T06:22:04.271Z,12.33
2018-10-06T06:26:07.690Z,12.23
2018-10-06T06:30:11.181Z,11.87
2018-10-06T06:34:15.136Z,11.37
2018-10-06T06:38:18.597Z,12.13
2018-10-06T06:42:21.981Z,10.90
2018-10-06T06:46:25.361Z,11.83
2018-10-06T06:50:28.769Z,12.10
2018-10-06T06:54:32.131Z,12.03
2018-10-06T06:58:35.734Z,12.03
2018-10-06T07:02:39.390Z,11.63
2018-10-06T07:06:43.960Z,10.27
2018-10-06T07:10:47.389Z,10.67
2018-10-06T07:14:50.769Z,9.50
2018-10-06T07:18:55.092Z,9.67
2018-10-06T07:22:58.448Z,9.70
2018-10-06T07:27:01.860Z,9.63
2018-10-06T07:31:05.557Z,10.80
2018-10-06T07:35:08.927Z,9.60
2018-10-06T07:39:12.302Z,9.60
2018-10-06T07:43:16.699Z,9.30
2018-10-06T07:47:20.323Z,9.17
2018-10-06T07:51:23.963Z,9.20
2018-10-06T07:55:27.524Z,8.63
2018-10-06T07:59:30.905Z,9.40
2018-10-06T08:03:34.436Z,9.47
2018-10-06T08:07:37.812Z,9.27
2018-10-06T08:11:41.156Z,8.13
2018-10-06T08:15:44.537Z,8.20
2018-10-06T08:19:48.009Z,8.70
2018-10-06T08:23:51.356Z,8.40
2018-10-06T08:27:54.716Z,8.13
2018-10-06T08:31:59.281Z,8.77
2018-10-06T08:36:02.647Z,8.37
2018-10-06T08:40:06.103Z,7.27
2018-10-06T08:44:09.471Z,7.23
2018-10-06T08:48:12.672Z,7.13
2018-10-06T08:52:16.053Z,7.40
2018-10-06T08:56:19.539Z,7.60
2018-10-06T09:00:22.897Z,6.17
2018-10-06T09:04:26.702Z,7.13
2018-10-06T09:08:29.956Z,6.73
2018-10-06T09:12:33.372Z,6.10
2018-10-06T09:16:36.770Z,6.70
2018-10-06T09:20:40.404Z,6.07
2018-10-06T09:24:43.767Z,6.47
2018-10-06T09:28:47.140Z,6.90
2018-10-06T09:32:50.488Z,6.83
2018-10-06T09:36:53.866Z,6.67
2018-10-06T09:40:57.472Z,6.03
2018-10-06T09:45:00.891Z,6.20
2018-10-06T09:49:05.292Z,5.63
2018-10-06T09:53:08.673Z,5.90
2018-10-06T09:57:12.049Z,5.90
2018-10-06T10:01:21.918Z,5.87
2018-10-06T10:05:57.347Z,5.73
2018-10-06T10:10:00.761Z,5.53
2018-10-06T10:14:04.521Z,5.27
2018-10-06T10:18:07.987Z,5.10
2018-10-06T10:22:11.267Z,5.30
2018-10-06T10:26:14.236Z,5.17
2018-10-06T10:30:17.961Z,4.93
2018-10-06T10:34:21.150Z,4.63
2018-10-06T10:38:24.272Z,4.87
2018-10-06T10:42:27.672Z,5.10
2018-10-06T10:46:30.821Z,4.90
2018-10-06T10:50:34.027Z,4.70
2018-10-06T10:54:37.162Z,4.80
2018-10-06T10:58:40.355Z,4.87
2018-10-06T11:02:43.516Z,4.20
2018-10-06T11:06:46.657Z,4.13
2018-10-06T11:10:49.809Z,3.87
2018-10-06T11:14:52.975Z,4.03
2018-10-06T11:18:56.747Z,4.20
2018-10-06T11:22:59.939Z,4.10
2018-10-06T11:27:03.080Z,3.80
2018-10-06T11:31:06.331Z,3.43
2018-10-06T11:35:09.523Z,3.70
2018-10-06T11:39:12.672Z,3.50
2018-10-06T11:43:15.823Z,3.75
2018-10-06T11:47:19.382Z,4.22
2018-10-06T11:51:22.525Z,3.33
2018-10-06T11:55:25.674Z,4.20
2018-10-06T11:59:28.847Z,3.67
2018-10-06T12:03:32.000Z,3.40
2018-10-06T12:07:35.147Z,3.27
2018-10-06T12:11:38.487Z,3.60
2018-10-06T12:15:41.652Z,3.50
2018-10-06T12:19:45.301Z,2.83
2018-10-06T12:23:49.192Z,2.87
2018-10-06T12:27:52.375Z,3.00
2018-10-06T12:31:55.559Z,3.20
2018-10-06T12:35:58.724Z,3.00
2018-10-06T12:40:02.104Z,2.97
2018-10-06T12:44:05.308Z,2.80
2018-10-06T12:48:08.496Z,2.58
2018-10-06T12:52:11.648Z,3.02
2018-10-06T12:56:15.030Z,2.80
2018-10-06T13:00:18.506Z,2.60
2018-10-06T13:04:21.871Z,2.77
2018-10-06T13:08:25.232Z,2.40
2018-10-06T13:12:28.611Z,2.50
2018-10-06T13:16:32.002Z,2.45
2018-10-06T13:20:35.483Z,2.77
2018-10-06T13:24:38.850Z,3.20
2018-10-06T13:28:42.233Z,2.80
2018-10-06T13:32:45.593Z,2.50
2018-10-06T13:36:48.988Z,2.80
2018-10-06T13:40:52.373Z,2.30
2018-10-06T13:44:55.745Z,2.70
2018-10-06T13:48:59.120Z,2.33
2018-10-06T13:53:02.494Z,2.73
2018-10-06T13:57:05.884Z,2.73
2018-10-06T14:01:09.330Z,3.07
2018-10-06T14:05:12.717Z,2.77
2018-10-06T14:09:16.092Z,3.00
2018-10-06T14:13:19.437Z,3.00
2018-10-06T14:17:22.864Z,3.07
2018-10-06T14:21:26.240Z,3.30
2018-10-06T14:25:29.619Z,2.97
2018-10-06T14:29:33.020Z,3.40
2018-10-06T14:33:36.384Z,3.40
2018-10-06T14:37:39.760Z,3.40
2018-10-06T14:41:43.132Z,3.10
2018-10-06T14:45:47.295Z,2.93
2018-10-06T14:49:50.733Z,3.10
2018-10-06T14:53:54.120Z,3.20
2018-10-06T14:57:58.606Z,3.10
2018-10-06T15:02:02.029Z,3.10
2018-10-06T15:06:05.395Z,3.17
2018-10-06T15:10:08.774Z,3.00
2018-10-06T15:14:12.191Z,3.53
2018-10-06T15:18:15.584Z,3.57
2018-10-06T15:22:18.977Z,3.30
2018-10-06T15:26:22.336Z,3.70
2018-10-06T15:30:29.205Z,3.30
2018-10-06T15:34:32.906Z,3.33
2018-10-06T15:38:36.292Z,3.17
2018-10-06T15:42:39.704Z,3.23
2018-10-06T15:46:43.056Z,3.27
2018-10-06T15:50:46.935Z,3.10
2018-10-06T15:54:50.327Z,3.33
2018-10-06T15:58:53.785Z,3.77
2018-10-06T16:02:57.175Z,3.30
2018-10-06T16:07:00.784Z,3.10
2018-10-06T16:11:04.135Z,3.47
2018-10-06T16:15:07.543Z,3.97
2018-10-06T16:19:10.910Z,3.70
2018-10-06T16:23:14.266Z,3.10
2018-10-06T16:27:17.677Z,3.30
2018-10-06T16:31:21.068Z,3.17
2018-10-06T16:35:24.700Z,2.80
2018-10-06T16:39:28.168Z,3.30
2018-10-06T16:43:31.541Z,3.17
2018-10-06T16:47:34.883Z,3.20
2018-10-06T16:51:38.258Z,3.20
2018-10-06T16:55:41.639Z,3.10
2018-10-06T16:59:45.197Z,3.13
2018-10-06T17:03:48.580Z,2.67
2018-10-06T17:07:52.026Z,2.70
2018-10-06T17:11:55.360Z,2.80
2018-10-06T17:15:58.739Z,3.17
2018-10-06T17:20:02.124Z,3.00
2018-10-06T17:24:06.037Z,3.17
2018-10-06T17:28:09.372Z,3.20
2018-10-06T17:32:14.032Z,3.30
2018-10-06T17:36:17.420Z,3.63
2018-10-06T17:40:20.812Z,3.50
2018-10-06T17:44:24.272Z,4.43
2018-10-06T17:48:27.771Z,3.60
2018-10-06T17:52:32.217Z,4.07
2018-10-06T17:56:35.589Z,3.93
2018-10-06T18:00:38.981Z,4.00
2018-10-06T18:04:42.373Z,4.50
2018-10-06T18:08:46.224Z,3.90
2018-10-06T18:12:49.626Z,4.13
2018-10-06T18:16:53.329Z,3.77
2018-10-06T18:20:56.741Z,4.90
2018-10-06T18:25:00.105Z,5.23
2018-10-06T18:29:03.524Z,5.13
2018-10-06T18:33:06.875Z,4.77
2018-10-06T18:37:10.400Z,4.70
2018-10-06T18:41:13.647Z,4.40
2018-10-06T18:45:17.584Z,6.40
2018-10-06T18:49:21.048Z,6.00
2018-10-06T18:53:24.391Z,6.00
2018-10-06T18:57:27.834Z,5.70
2018-10-06T19:01:31.368Z,5.53
2018-10-06T19:05:34.910Z,6.37
2018-10-06T19:09:38.284Z,5.40
2018-10-06T19:13:41.690Z,5.70
2018-10-06T19:17:45.092Z,6.63
2018-10-06T19:21:48.495Z,5.37
2018-10-06T19:25:51.961Z,4.27
2018-10-06T19:29:55.275Z,4.47
2018-10-06T19:33:58.663Z,4.50
2018-10-06T19:38:02.028Z,4.63
2018-10-06T19:42:05.408Z,4.40
2018-10-06T19:46:09.110Z,4.20
2018-10-06T19:50:12.571Z,4.57
2018-10-06T19:54:16.284Z,4.73
2018-10-06T19:58:19.904Z,4.60
2018-10-06T20:02:23.291Z,4.80
2018-10-06T20:06:28.953Z,4.37
2018-10-06T20:10:32.349Z,4.60
2018-10-06T20:14:35.739Z,4.87
2018-10-06T20:18:39.140Z,5.00
2018-10-06T20:22:42.840Z,5.10
2018-10-06T20:26:46.227Z,5.80
2018-10-06T20:30:49.693Z,5.60
2018-10-06T20:34:53.105Z,5.50
2018-10-06T20:38:56.502Z,6.20
2018-10-06T20:42:59.904Z,5.97
2018-10-06T20:47:03.252Z,5.73
2018-10-06T20:51:07.701Z,6.00
2018-10-06T20:55:11.144Z,6.30
2018-10-06T20:59:14.510Z,6.23
2018-10-06T21:03:17.938Z,6.60
2018-10-06T21:07:21.301Z,6.00
2018-10-06T21:11:25.121Z,6.30
2018-10-06T21:15:28.512Z,6.17
2018-10-06T21:19:32.119Z,5.80
2018-10-06T21:23:35.515Z,6.20
2018-10-06T21:27:38.896Z,6.60
2018-10-06T21:31:42.303Z,7.17
2018-10-06T21:35:45.672Z,9.00
2018-10-06T21:39:49.080Z,8.77
2018-10-06T21:43:52.480Z,9.57
2018-10-06T21:47:55.859Z,8.20
2018-10-06T21:51:59.255Z,8.20
2018-10-06T21:56:02.704Z,9.67
2018-10-06T22:00:09.620Z,9.93
2018-10-06T22:04:13.011Z,9.13
2018-10-06T22:08:16.372Z,10.53
2018-10-06T22:12:19.740Z,8.60
2018-10-06T22:16:24.047Z,9.47
2018-10-06T22:20:27.516Z,8.53
2018-10-06T22:24:30.963Z,8.07
2018-10-06T22:28:34.312Z,8.33
2018-10-06T22:32:37.693Z,9.10
2018-10-06T22:36:41.083Z,9.63
2018-10-06T22:40:44.457Z,10.83
2018-10-06T22:44:47.824Z,10.30
2018-10-06T22:48:51.281Z,12.07
2018-10-06T22:52:55.775Z,15.57
2018-10-06T22:56:59.253Z,14.47
2018-10-06T23:01:02.669Z,16.77
2018-10-06T23:05:06.073Z,19.13
2018-10-06T23:09:11.520Z,23.47
2018-10-06T23:13:14.879Z,21.53
2018-10-06T23:17:19.135Z,22.57
2018-10-06T23:21:22.548Z,22.17
2018-10-06T23:25:25.925Z,21.20
2018-10-06T23:29:29.294Z,21.37
2018-10-06T23:33:32.701Z,23.87
2018-10-06T23:37:36.099Z,26.47
2018-10-06T23:41:39.504Z,27.70
2018-10-06T23:45:44.191Z,31.43
2018-10-06T23:49:47.601Z,33.63
2018-10-06T23:53:50.989Z,36.00
2018-10-06T23:57:54.348Z,36.60
